createdAt,value
2018-12-09T00:00:43.625Z,5.40
2018-12-09T00:01:43.557Z,5.20
2018-12-09T00:02:43.521Z,5.30
2018-12-09T00:03:43.480Z,5.00
2018-12-09T00:04:43.437Z,4.80
2018-12-09T00:05:43.396Z,5.40
2018-12-09T00:06:43.371Z,4.80
2018-12-09T00:07:43.306Z,5.40
2018-12-09T00:08:43.269Z,5.20
2018-12-09T00:09:43.226Z,5.00
2018-12-09T00:10:43.203Z,5.20
2018-12-09T00:11:43.139Z,5.10
2018-12-09T00:12:43.093Z,5.10
2018-12-09T00:13:43.050Z,4.80
2018-12-09T00:14:43.020Z,4.80
2018-12-09T00:15:42.997Z,4.30
2018-12-09T00:16:42.933Z,4.70
2018-12-09T00:17:42.893Z,4.40
2018-12-09T00:18:42.843Z,4.90
2018-12-09T00:19:42.799Z,5.10
2018-12-09T00:20:42.782Z,4.60
2018-12-09T00:21:42.716Z,4.90
2018-12-09T00:22:42.684Z,4.70
2018-12-09T00:23:42.638Z,4.60
2018-12-09T00:24:42.590Z,4.90
2018-12-09T00:25:42.576Z,4.50
2018-12-09T00:26:42.511Z,5.30
2018-12-09T00:27:42.467Z,4.80
2018-12-09T00:28:42.450Z,4.60
2018-12-09T00:29:42.395Z,4.40
2018-12-09T00:30:42.341Z,4.70
2018-12-09T00:31:42.298Z,4.30
2018-12-09T00:32:42.255Z,5.00
2018-12-09T00:33:42.237Z,4.50
2018-12-09T00:34:42.174Z,4.80
2018-12-09T00:35:42.134Z,4.80
2018-12-09T00:36:42.119Z,4.80
2018-12-09T00:37:42.052Z,4.30
2018-12-09T00:38:42.001Z,4.10
2018-12-09T00:39:41.958Z,4.70
2018-12-09T00:40:41.926Z,5.10
2018-12-09T00:41:41.882Z,4.70
2018-12-09T00:42:43.642Z,4.10
2018-12-09T00:43:41.790Z,4.60
2018-12-09T00:44:41.775Z,5.00
2018-12-09T00:45:41.708Z,4.60
2018-12-09T00:46:41.672Z,4.80
2018-12-09T00:47:41.632Z,4.60
2018-12-09T00:48:41.588Z,4.80
2018-12-09T00:49:41.548Z,4.40
2018-12-09T00:50:41.517Z,4.60
2018-12-09T00:51:41.453Z,5.10
2018-12-09T00:52:41.412Z,5.10
2018-12-09T00:53:41.370Z,4.30
2018-12-09T00:54:41.371Z,5.00
2018-12-09T00:55:41.294Z,5.10
2018-12-09T00:56:41.246Z,5.30
2018-12-09T00:57:41.202Z,4.90
2018-12-09T00:58:41.167Z,5.20
2018-12-09T00:59:41.147Z,5.00
2018-12-09T01:00:41.078Z,5.30
2018-12-09T01:01:41.039Z,5.50
2018-12-09T01:02:42.869Z,5.70
2018-12-09T01:03:40.949Z,5.30
2018-12-09T01:04:40.933Z,5.20
2018-12-09T01:05:40.865Z,5.50
2018-12-09T01:06:40.829Z,5.10
2018-12-09T01:07:40.786Z,5.50
2018-12-09T01:08:40.744Z,5.70
2018-12-09T01:09:40.705Z,5.30
2018-12-09T01:10:40.676Z,5.90
2018-12-09T01:11:40.634Z,6.00
2018-12-09T01:12:40.572Z,5.40
2018-12-09T01:13:40.532Z,6.10
2018-12-09T01:14:40.507Z,6.20
2018-12-09T01:15:40.442Z,6.20
2018-12-09T01:16:40.397Z,5.80
2018-12-09T01:17:40.362Z,6.00
2018-12-09T01:18:40.321Z,5.90
2018-12-09T01:19:40.302Z,6.60
2018-12-09T01:20:40.259Z,6.30
2018-12-09T01:21:40.195Z,6.60
2018-12-09T01:22:40.156Z,6.70
2018-12-09T01:23:40.102Z,6.30
2018-12-09T01:24:40.070Z,7.50
2018-12-09T01:25:40.044Z,6.30
2018-12-09T01:26:39.982Z,6.10
2018-12-09T01:27:39.941Z,5.90
2018-12-09T01:28:39.917Z,6.50
2018-12-09T01:29:39.853Z,6.20
2018-12-09T01:30:39.814Z,5.90
2018-12-09T01:31:39.774Z,6.30
2018-12-09T01:32:39.729Z,6.40
2018-12-09T01:33:39.708Z,6.20
2018-12-09T01:34:39.639Z,6.40
2018-12-09T01:35:39.594Z,6.30
2018-12-09T01:36:39.552Z,6.40
2018-12-09T01:37:39.533Z,5.70
2018-12-09T01:38:39.478Z,5.90
2018-12-09T01:39:39.434Z,5.80
2018-12-09T01:40:39.390Z,5.90
2018-12-09T01:41:39.346Z,5.80
2018-12-09T01:42:39.325Z,6.20
2018-12-09T01:43:39.254Z,6.00
2018-12-09T01:44:39.218Z,5.50
2018-12-09T01:45:39.176Z,6.00
2018-12-09T01:46:39.129Z,6.10
2018-12-09T01:47:39.085Z,5.40
2018-12-09T01:48:39.069Z,6.50
2018-12-09T01:49:38.999Z,5.90
2018-12-09T01:50:38.964Z,5.80
2018-12-09T01:51:38.945Z,5.60
2018-12-09T01:52:38.878Z,6.30
2018-12-09T01:53:38.837Z,5.20
2018-12-09T01:54:38.786Z,5.80
2018-12-09T01:55:38.766Z,5.70
2018-12-09T01:56:38.704Z,5.90
2018-12-09T01:57:38.687Z,6.30
2018-12-09T01:58:38.623Z,5.70
2018-12-09T01:59:38.605Z,5.60
2018-12-09T02:00:38.532Z,6.10
2018-12-09T02:01:38.489Z,5.70
2018-12-09T02:02:38.455Z,5.60
2018-12-09T02:03:38.413Z,5.60
2018-12-09T02:04:38.394Z,5.40
2018-12-09T02:05:38.329Z,5.70
2018-12-09T02:06:38.276Z,5.20
2018-12-09T02:07:38.232Z,5.10
2018-12-09T02:08:38.193Z,5.60
2018-12-09T02:09:38.175Z,5.50
2018-12-09T02:10:38.117Z,4.90
2018-12-09T02:11:38.069Z,6.00
2018-12-09T02:12:38.054Z,5.50
2018-12-09T02:13:38.010Z,5.60
2018-12-09T02:14:37.961Z,5.60
2018-12-09T02:15:37.897Z,5.10
2018-12-09T02:16:37.862Z,5.50
2018-12-09T02:17:37.823Z,5.40
2018-12-09T02:18:37.790Z,5.30
2018-12-09T02:19:37.728Z,5.10
2018-12-09T02:20:37.683Z,5.40
2018-12-09T02:21:37.642Z,5.40
2018-12-09T02:22:37.606Z,5.40
2018-12-09T02:23:37.585Z,5.70
2018-12-09T02:24:37.546Z,5.50
2018-12-09T02:25:37.480Z,6.00
2018-12-09T02:26:37.427Z,6.00
2018-12-09T02:27:37.388Z,6.40
2018-12-09T02:28:37.344Z,5.90
2018-12-09T02:29:37.322Z,6.00
2018-12-09T02:30:37.265Z,6.20
2018-12-09T02:31:37.222Z,5.90
2018-12-09T02:32:37.177Z,6.20
2018-12-09T02:33:37.161Z,5.80
2018-12-09T02:34:37.095Z,6.10
2018-12-09T02:35:37.053Z,5.50
2018-12-09T02:36:37.017Z,6.10
2018-12-09T02:37:36.977Z,5.70
2018-12-09T02:38:36.918Z,4.90
2018-12-09T02:39:36.899Z,5.20
2018-12-09T02:40:36.835Z,5.90
2018-12-09T02:41:36.791Z,5.00
2018-12-09T02:42:36.752Z,6.00
2018-12-09T02:43:36.710Z,5.70
2018-12-09T02:44:36.691Z,5.10
2018-12-09T02:45:36.630Z,4.90
2018-12-09T02:46:36.576Z,4.30
2018-12-09T02:47:36.532Z,3.80
2018-12-09T02:48:36.521Z,3.80
2018-12-09T02:49:36.456Z,3.50
2018-12-09T02:50:36.406Z,3.20
2018-12-09T02:51:36.362Z,3.40
2018-12-09T02:52:36.324Z,3.60
2018-12-09T02:53:36.297Z,3.10
2018-12-09T02:54:36.260Z,3.00
2018-12-09T02:55:36.195Z,3.20
2018-12-09T02:56:36.150Z,3.00
2018-12-09T02:57:36.111Z,3.00
2018-12-09T02:58:36.071Z,2.70
2018-12-09T02:59:36.039Z,2.40
2018-12-09T03:00:35.972Z,2.50
2018-12-09T03:01:35.927Z,2.40
2018-12-09T03:02:35.894Z,2.50
2018-12-09T03:03:35.850Z,2.40
2018-12-09T03:04:35.822Z,2.70
2018-12-09T03:05:35.756Z,2.30
2018-12-09T03:06:35.744Z,2.90
2018-12-09T03:07:35.675Z,3.30
2018-12-09T03:08:35.655Z,3.50
2018-12-09T03:09:35.587Z,3.70
2018-12-09T03:10:35.539Z,3.50
2018-12-09T03:11:35.496Z,4.10
2018-12-09T03:12:35.475Z,4.10
2018-12-09T03:13:35.408Z,4.40
2018-12-09T03:14:35.373Z,4.70
2018-12-09T03:15:35.327Z,4.30
2018-12-09T03:16:35.287Z,4.70
2018-12-09T03:17:35.267Z,5.20
2018-12-09T03:18:35.193Z,4.60
2018-12-09T03:19:35.150Z,4.80
2018-12-09T03:20:35.110Z,4.80
2018-12-09T03:21:35.072Z,5.40
2018-12-09T03:22:35.043Z,5.00
2018-12-09T03:23:34.974Z,5.30
2018-12-09T03:24:34.955Z,5.10
2018-12-09T03:25:34.886Z,5.40
2018-12-09T03:26:34.852Z,5.20
2018-12-09T03:27:34.810Z,5.60
2018-12-09T03:28:34.764Z,5.50
2018-12-09T03:29:34.743Z,5.40
2018-12-09T03:30:34.694Z,5.70
2018-12-09T03:31:34.630Z,4.90
2018-12-09T03:32:34.615Z,5.10
2018-12-09T03:33:34.614Z,5.00
2018-12-09T03:34:34.515Z,5.50
2018-12-09T03:35:34.465Z,5.40
2018-12-09T03:36:34.416Z,4.60
2018-12-09T03:37:34.390Z,3.50
2018-12-09T03:38:34.333Z,3.80
2018-12-09T03:39:34.291Z,3.40
2018-12-09T03:40:34.268Z,3.40
2018-12-09T03:41:34.203Z,3.20
2018-12-09T03:42:34.184Z,3.70
2018-12-09T03:43:34.110Z,3.00
2018-12-09T03:44:34.066Z,3.00
2018-12-09T03:45:34.023Z,3.20
2018-12-09T03:46:33.990Z,2.90
2018-12-09T03:47:33.972Z,3.10
2018-12-09T03:48:33.901Z,2.80
2018-12-09T03:49:33.863Z,2.60
2018-12-09T03:50:33.831Z,2.80
2018-12-09T03:51:33.767Z,2.90
2018-12-09T03:52:33.757Z,2.60
2018-12-09T03:53:33.685Z,2.90
2018-12-09T03:54:33.638Z,2.50
2018-12-09T03:55:33.593Z,2.70
2018-12-09T03:56:33.548Z,2.60
2018-12-09T03:57:33.532Z,2.20
2018-12-09T03:58:33.471Z,2.30
2018-12-09T03:59:33.429Z,2.40
2018-12-09T04:00:33.414Z,2.20
2018-12-09T04:01:33.342Z,2.70
2018-12-09T04:02:33.294Z,2.10
2018-12-09T04:03:33.251Z,2.20
2018-12-09T04:04:33.205Z,2.40
2018-12-09T04:05:33.163Z,2.40
2018-12-09T04:06:33.151Z,2.30
2018-12-09T04:07:33.088Z,2.30
2018-12-09T04:08:33.034Z,2.30
2018-12-09T04:09:32.990Z,2.30
2018-12-09T04:10:32.978Z,1.90
2018-12-09T04:11:32.909Z,2.30
2018-12-09T04:12:32.883Z,2.10
2018-12-09T04:13:32.825Z,1.90
2018-12-09T04:14:32.873Z,2.00
2018-12-09T04:15:32.755Z,2.10
2018-12-09T04:16:32.714Z,2.10
2018-12-09T04:17:32.644Z,1.80
2018-12-09T04:18:32.612Z,1.90
2018-12-09T04:19:32.564Z,1.80
2018-12-09T04:20:32.523Z,2.10
2018-12-09T04:21:32.477Z,2.00
2018-12-09T04:22:32.447Z,2.30
2018-12-09T04:23:32.401Z,2.30
2018-12-09T04:24:32.348Z,2.20
2018-12-09T04:25:32.303Z,2.00
2018-12-09T04:26:32.279Z,2.10
2018-12-09T04:27:32.210Z,2.00
2018-12-09T04:28:32.169Z,2.60
2018-12-09T04:29:32.122Z,1.90
2018-12-09T04:30:32.090Z,2.30
2018-12-09T04:31:32.071Z,2.20
2018-12-09T04:32:32.005Z,2.60
2018-12-09T04:33:31.957Z,2.30
2018-12-09T04:34:31.912Z,2.40
2018-12-09T04:35:31.866Z,2.20
2018-12-09T04:36:31.850Z,2.60
2018-12-09T04:37:31.792Z,2.30
2018-12-09T04:38:31.741Z,2.10
2018-12-09T04:39:31.700Z,2.70
2018-12-09T04:40:31.650Z,2.40
2018-12-09T04:41:31.608Z,2.30
2018-12-09T04:42:31.591Z,2.20
2018-12-09T04:43:31.524Z,2.40
2018-12-09T04:44:31.483Z,2.60
2018-12-09T04:45:31.443Z,2.50
2018-12-09T04:46:31.415Z,2.80
2018-12-09T04:47:31.344Z,2.50
2018-12-09T04:48:31.302Z,2.80
2018-12-09T04:49:31.262Z,3.10
2018-12-09T04:50:31.224Z,2.80
2018-12-09T04:51:31.208Z,2.80
2018-12-09T04:52:31.139Z,2.50
2018-12-09T04:53:31.094Z,2.80
2018-12-09T04:54:31.049Z,2.90
2018-12-09T04:55:31.002Z,3.10
2018-12-09T04:56:30.967Z,3.00
2018-12-09T04:57:30.942Z,2.90
2018-12-09T04:58:30.871Z,3.10
2018-12-09T04:59:30.829Z,3.20
2018-12-09T05:00:30.783Z,3.00
2018-12-09T05:01:30.743Z,3.40
2018-12-09T05:02:30.736Z,3.20
2018-12-09T05:03:30.660Z,3.10
2018-12-09T05:04:30.619Z,3.10
2018-12-09T05:05:30.575Z,3.10
2018-12-09T05:06:30.527Z,3.10
2018-12-09T05:07:30.483Z,2.90
2018-12-09T05:08:30.462Z,2.70
2018-12-09T05:09:30.396Z,2.90
2018-12-09T05:10:30.362Z,3.20
2018-12-09T05:11:30.319Z,2.70
2018-12-09T05:12:30.268Z,2.60
2018-12-09T05:13:30.247Z,2.40
2018-12-09T05:14:30.189Z,2.60
2018-12-09T05:15:30.147Z,2.70
2018-12-09T05:16:30.104Z,2.80
2018-12-09T05:17:30.059Z,2.70
2018-12-09T05:18:30.038Z,2.70
2018-12-09T05:19:29.967Z,2.50
2018-12-09T05:20:29.926Z,2.60
2018-12-09T05:21:29.880Z,2.60
2018-12-09T05:22:29.845Z,2.70
2018-12-09T05:23:29.800Z,3.00
2018-12-09T05:24:29.777Z,2.70
2018-12-09T05:25:29.714Z,2.80
2018-12-09T05:26:29.664Z,2.70
2018-12-09T05:27:29.619Z,2.60
2018-12-09T05:28:29.587Z,2.50
2018-12-09T05:29:29.569Z,2.80
2018-12-09T05:30:29.490Z,3.00
2018-12-09T05:31:29.449Z,3.00
2018-12-09T05:32:29.404Z,2.90
2018-12-09T05:33:29.363Z,2.70
2018-12-09T05:34:29.329Z,3.00
2018-12-09T05:35:29.307Z,3.00
2018-12-09T05:36:29.241Z,2.80
2018-12-09T05:37:29.197Z,2.90
2018-12-09T05:38:29.146Z,2.50
2018-12-09T05:39:29.127Z,2.90
2018-12-09T05:40:29.065Z,3.00
2018-12-09T05:41:29.016Z,3.00
2018-12-09T05:42:28.983Z,2.70
2018-12-09T05:43:28.939Z,3.00
2018-12-09T05:44:28.913Z,3.20
2018-12-09T05:45:28.869Z,2.80
2018-12-09T05:46:28.812Z,2.80
2018-12-09T05:47:28.767Z,2.80
2018-12-09T05:48:28.726Z,2.90
2018-12-09T05:49:28.682Z,2.80
2018-12-09T05:50:28.654Z,2.70
2018-12-09T05:51:28.609Z,3.30
2018-12-09T05:52:28.545Z,2.80
2018-12-09T05:53:28.501Z,2.90
2018-12-09T05:54:28.467Z,3.00
2018-12-09T05:55:28.443Z,2.70
2018-12-09T05:56:28.379Z,2.80
2018-12-09T05:57:28.338Z,3.00
2018-12-09T05:58:28.287Z,2.90
2018-12-09T05:59:28.244Z,3.20
2018-12-09T06:00:28.234Z,3.10
2018-12-09T06:01:28.191Z,3.10
2018-12-09T06:02:28.116Z,3.20
2018-12-09T06:03:28.072Z,3.20
2018-12-09T06:04:28.025Z,3.40
2018-12-09T06:05:27.983Z,3.60
2018-12-09T06:06:27.949Z,3.40
2018-12-09T06:07:27.926Z,3.90
2018-12-09T06:08:27.885Z,3.60
2018-12-09T06:09:27.819Z,3.20
2018-12-09T06:10:27.771Z,3.50
2018-12-09T06:11:27.730Z,3.90
2018-12-09T06:12:27.682Z,3.30
2018-12-09T06:13:27.664Z,3.50
2018-12-09T06:14:27.606Z,4.00
2018-12-09T06:15:27.558Z,4.00
2018-12-09T06:16:27.510Z,3.70
2018-12-09T06:17:27.467Z,3.80
2018-12-09T06:18:27.462Z,4.00
2018-12-09T06:19:27.388Z,4.20
2018-12-09T06:20:27.345Z,3.80
2018-12-09T06:21:27.301Z,3.70
2018-12-09T06:22:27.250Z,4.30
2018-12-09T06:23:27.207Z,4.40
2018-12-09T06:24:27.200Z,4.50
2018-12-09T06:25:27.125Z,4.20
2018-12-09T06:26:27.084Z,5.00
2018-12-09T06:27:27.041Z,4.60
2018-12-09T06:28:26.998Z,4.60
2018-12-09T06:29:26.957Z,5.00
2018-12-09T06:30:26.930Z,4.90
2018-12-09T06:31:26.860Z,4.40
2018-12-09T06:32:26.825Z,4.80
2018-12-09T06:33:26.784Z,5.20
2018-12-09T06:34:26.735Z,5.20
2018-12-09T06:35:26.711Z,5.40
2018-12-09T06:36:26.645Z,5.50
2018-12-09T06:37:26.603Z,5.00
2018-12-09T06:38:26.566Z,4.60
2018-12-09T06:39:26.525Z,5.20
2018-12-09T06:40:26.507Z,5.50
2018-12-09T06:41:26.439Z,5.50
2018-12-09T06:42:26.386Z,5.30
2018-12-09T06:43:26.342Z,5.00
2018-12-09T06:44:26.299Z,5.20
2018-12-09T06:45:26.257Z,4.80
2018-12-09T06:46:26.244Z,4.90
2018-12-09T06:47:26.202Z,5.20
2018-12-09T06:48:26.129Z,5.40
2018-12-09T06:49:26.083Z,5.50
2018-12-09T06:50:26.051Z,5.40
2018-12-09T06:51:26.003Z,5.20
2018-12-09T06:52:25.981Z,5.80
2018-12-09T06:53:25.921Z,5.00
2018-12-09T06:54:25.867Z,5.70
2018-12-09T06:55:25.823Z,5.70
2018-12-09T06:56:25.778Z,5.20
2018-12-09T06:57:25.773Z,5.70
2018-12-09T06:58:25.700Z,5.40
2018-12-09T06:59:25.659Z,5.70
2018-12-09T07:00:25.664Z,5.30
2018-12-09T07:01:25.571Z,5.50
2018-12-09T07:02:25.522Z,5.40
2018-12-09T07:03:25.504Z,5.40
2018-12-09T07:04:25.452Z,5.50
2018-12-09T07:05:25.396Z,5.50
2018-12-09T07:06:25.344Z,5.50
2018-12-09T07:07:25.306Z,5.50
2018-12-09T07:08:25.284Z,5.90
2018-12-09T07:09:25.219Z,5.60
2018-12-09T07:10:25.185Z,5.30
2018-12-09T07:11:25.139Z,5.20
2018-12-09T07:12:25.099Z,5.60
2018-12-09T07:13:25.076Z,5.90
2018-12-09T07:14:25.118Z,5.70
2018-12-09T07:15:24.959Z,5.50
2018-12-09T07:16:24.917Z,5.60
2018-12-09T07:17:24.873Z,5.60
2018-12-09T07:18:24.836Z,5.80
2018-12-09T07:19:24.820Z,5.50
2018-12-09T07:20:24.747Z,5.40
2018-12-09T07:21:24.705Z,5.40
2018-12-09T07:22:24.664Z,5.30
2018-12-09T07:23:24.618Z,4.90
2018-12-09T07:24:24.601Z,4.60
2018-12-09T07:25:24.538Z,4.80
2018-12-09T07:26:24.486Z,5.10
2018-12-09T07:27:24.444Z,5.10
2018-12-09T07:28:24.400Z,5.40
2018-12-09T07:29:24.382Z,4.90
2018-12-09T07:30:24.321Z,5.80
2018-12-09T07:31:24.277Z,5.10
2018-12-09T07:32:24.234Z,4.70
2018-12-09T07:33:24.192Z,4.70
2018-12-09T07:34:24.142Z,4.90
2018-12-09T07:35:24.123Z,5.00
2018-12-09T07:36:24.063Z,5.00
2018-12-09T07:37:24.019Z,5.10
2018-12-09T07:38:23.969Z,4.90
2018-12-09T07:39:23.949Z,4.70
2018-12-09T07:40:23.904Z,4.60
2018-12-09T07:41:23.840Z,4.90
2018-12-09T07:42:23.804Z,5.40
2018-12-09T07:43:23.762Z,5.00
2018-12-09T07:44:23.744Z,5.30
2018-12-09T07:45:23.673Z,5.00
2018-12-09T07:46:23.627Z,4.50
2018-12-09T07:47:23.582Z,5.60
2018-12-09T07:48:23.539Z,5.30
2018-12-09T07:49:23.501Z,4.70
2018-12-09T07:50:23.481Z,4.70
2018-12-09T07:51:23.416Z,4.80
2018-12-09T07:52:23.369Z,5.00
2018-12-09T07:53:23.326Z,5.00
2018-12-09T07:54:23.289Z,4.90
2018-12-09T07:55:23.275Z,4.70
2018-12-09T07:56:23.205Z,5.30
2018-12-09T07:57:23.160Z,4.80
2018-12-09T07:58:23.110Z,5.00
2018-12-09T07:59:23.067Z,5.30
2018-12-09T08:00:23.025Z,4.80
2018-12-09T08:01:23.010Z,4.80
2018-12-09T08:02:22.945Z,4.90
2018-12-09T08:03:22.903Z,5.00
2018-12-09T08:04:22.860Z,4.80
2018-12-09T08:05:22.846Z,4.70
2018-12-09T08:06:22.768Z,5.20
2018-12-09T08:07:22.724Z,5.10
2018-12-09T08:08:22.693Z,4.20
2018-12-09T08:09:22.645Z,4.40
2018-12-09T08:10:22.600Z,5.00
2018-12-09T08:11:22.578Z,4.50
2018-12-09T08:12:22.516Z,3.90
2018-12-09T08:13:22.471Z,4.90
2018-12-09T08:14:22.433Z,4.30
2018-12-09T08:15:22.391Z,4.10
2018-12-09T08:16:22.377Z,3.70
2018-12-09T08:17:22.306Z,4.50
2018-12-09T08:18:22.258Z,4.30
2018-12-09T08:19:22.216Z,4.70
2018-12-09T08:20:22.171Z,4.30
2018-12-09T08:21:22.127Z,4.40
2018-12-09T08:22:22.117Z,4.60
2018-12-09T08:23:22.048Z,4.10
2018-12-09T08:24:22.030Z,4.10
2018-12-09T08:25:21.971Z,4.30
2018-12-09T08:26:21.929Z,4.30
2018-12-09T08:27:21.904Z,4.20
2018-12-09T08:28:21.842Z,4.60
2018-12-09T08:29:21.796Z,4.70
2018-12-09T08:30:21.749Z,4.50
2018-12-09T08:31:21.704Z,4.30
2018-12-09T08:32:21.684Z,4.30
2018-12-09T08:33:21.621Z,4.50
2018-12-09T08:34:21.586Z,4.30
2018-12-09T08:35:21.549Z,4.60
2018-12-09T08:36:21.531Z,4.80
2018-12-09T08:37:21.461Z,4.60
2018-12-09T08:38:21.408Z,5.00
2018-12-09T08:39:21.365Z,4.30
2018-12-09T08:40:21.331Z,5.00
2018-12-09T08:41:21.286Z,5.00
2018-12-09T08:42:21.264Z,4.30
2018-12-09T08:43:21.202Z,4.40
2018-12-09T08:44:21.157Z,4.80
2018-12-09T08:45:21.118Z,4.90
2018-12-09T08:46:21.093Z,4.40
2018-12-09T08:47:21.033Z,4.40
2018-12-09T08:48:21.013Z,4.60
2018-12-09T08:49:20.949Z,4.90
2018-12-09T08:50:20.928Z,4.60
2018-12-09T08:51:20.855Z,5.00
2018-12-09T08:52:20.844Z,4.70
2018-12-09T08:53:20.772Z,4.30
2018-12-09T08:54:20.738Z,4.30
2018-12-09T08:55:20.696Z,4.60
2018-12-09T08:56:20.665Z,4.50
2018-12-09T08:57:20.599Z,4.60
2018-12-09T08:58:20.568Z,4.40
2018-12-09T08:59:20.548Z,4.30
2018-12-09T09:00:20.505Z,4.70
2018-12-09T09:01:20.439Z,4.10
2018-12-09T09:02:20.391Z,4.30
2018-12-09T09:03:20.347Z,4.10
2018-12-09T09:04:20.306Z,4.60
2018-12-09T09:05:20.284Z,4.70
2018-12-09T09:06:20.232Z,4.70
2018-12-09T09:07:20.186Z,4.20
2018-12-09T09:08:20.143Z,4.30
2018-12-09T09:09:20.100Z,4.50
2018-12-09T09:10:21.992Z,4.40
2018-12-09T09:11:20.010Z,4.60
2018-12-09T09:12:20.079Z,4.40
2018-12-09T09:13:19.933Z,4.40
2018-12-09T09:14:19.885Z,4.30
2018-12-09T09:15:19.862Z,3.70
2018-12-09T09:16:19.825Z,4.20
2018-12-09T09:17:19.756Z,4.30
2018-12-09T09:18:19.718Z,4.10
2018-12-09T09:19:19.681Z,4.30
2018-12-09T09:20:19.637Z,4.30
2018-12-09T09:21:19.596Z,4.90
2018-12-09T09:22:19.572Z,4.20
2018-12-09T09:23:19.502Z,4.60
2018-12-09T09:24:19.461Z,4.60
2018-12-09T09:25:19.418Z,3.90
2018-12-09T09:26:19.383Z,4.00
2018-12-09T09:27:19.341Z,4.80
2018-12-09T09:28:19.318Z,4.20
2018-12-09T09:29:19.250Z,3.90
2018-12-09T09:30:19.211Z,3.90
2018-12-09T09:31:19.168Z,4.10
2018-12-09T09:32:19.128Z,4.30
2018-12-09T09:33:19.084Z,4.80
2018-12-09T09:34:19.059Z,3.90
2018-12-09T09:35:18.991Z,4.50
2018-12-09T09:36:18.950Z,3.50
2018-12-09T09:37:18.909Z,4.20
2018-12-09T09:38:18.871Z,4.10
2018-12-09T09:39:18.859Z,4.20
2018-12-09T09:40:18.787Z,3.90
2018-12-09T09:41:18.747Z,4.40
2018-12-09T09:42:18.698Z,3.70
2018-12-09T09:43:18.656Z,4.00
2018-12-09T09:44:18.619Z,3.80
2018-12-09T09:45:18.601Z,4.20
2018-12-09T09:46:18.550Z,3.80
2018-12-09T09:47:18.657Z,3.90
2018-12-09T09:48:18.443Z,4.10
2018-12-09T09:49:18.397Z,3.50
2018-12-09T09:50:18.368Z,4.10
2018-12-09T09:52:50.393Z,3.70
2018-12-09T09:53:50.256Z,3.80
2018-12-09T09:54:50.224Z,4.20
2018-12-09T09:55:50.176Z,3.70
2018-12-09T09:56:50.144Z,4.10
2018-12-09T09:57:50.253Z,4.10
2018-12-09T09:58:50.048Z,4.00
2018-12-09T09:59:50.027Z,3.70
2018-12-09T10:00:49.965Z,3.80
2018-12-09T10:01:49.954Z,3.90
2018-12-09T10:02:49.898Z,4.00
2018-12-09T10:03:49.846Z,4.20
2018-12-09T10:04:49.815Z,3.80
2018-12-09T10:05:49.770Z,3.80
2018-12-09T10:06:49.703Z,3.90
2018-12-09T10:07:49.717Z,4.20
2018-12-09T10:08:49.627Z,4.20
2018-12-09T10:09:49.589Z,4.20
2018-12-09T10:10:49.559Z,4.50
2018-12-09T10:11:49.503Z,4.00
2018-12-09T10:12:49.456Z,4.20
2018-12-09T10:13:49.475Z,4.00
2018-12-09T10:14:49.396Z,4.30
2018-12-09T10:15:49.321Z,4.40
2018-12-09T10:16:49.290Z,3.70
2018-12-09T10:17:49.231Z,4.40
2018-12-09T10:18:49.215Z,4.10
2018-12-09T10:19:49.149Z,4.70
2018-12-09T10:20:49.137Z,4.40
2018-12-09T10:21:49.060Z,4.50
2018-12-09T10:22:49.023Z,4.40
2018-12-09T10:23:48.983Z,4.00
2018-12-09T10:24:48.943Z,4.40
2018-12-09T10:25:48.891Z,4.60
2018-12-09T10:26:48.876Z,4.30
2018-12-09T10:27:48.822Z,4.40
2018-12-09T10:28:48.757Z,4.70
2018-12-09T10:29:48.738Z,4.60
2018-12-09T10:30:48.698Z,5.00
2018-12-09T10:31:48.662Z,4.50
2018-12-09T10:32:48.627Z,4.40
2018-12-09T10:33:49.562Z,4.60
2018-12-09T10:34:48.530Z,4.90
2018-12-09T10:35:48.465Z,4.90
2018-12-09T10:36:48.439Z,5.10
2018-12-09T10:37:48.382Z,5.10
2018-12-09T10:38:48.368Z,4.50
2018-12-09T10:39:48.296Z,5.00
2018-12-09T10:40:48.253Z,5.60
2018-12-09T10:41:48.249Z,5.50
2018-12-09T10:42:48.173Z,4.80
2018-12-09T10:43:48.125Z,5.20
2018-12-09T10:44:48.081Z,5.10
2018-12-09T10:45:48.029Z,4.90
2018-12-09T10:46:48.014Z,5.50
2018-12-09T10:47:47.944Z,5.10
2018-12-09T10:48:47.920Z,5.70
2018-12-09T10:49:47.872Z,5.00
2018-12-09T10:50:47.827Z,5.60
2018-12-09T10:51:47.804Z,5.10
2018-12-09T10:52:47.769Z,5.20
2018-12-09T10:53:47.692Z,5.60
2018-12-09T10:54:47.698Z,5.90
2018-12-09T10:55:47.614Z,5.40
2018-12-09T10:56:47.593Z,5.80
2018-12-09T10:57:47.530Z,6.50
2018-12-09T10:58:47.483Z,5.30
2018-12-09T10:59:47.467Z,5.60
2018-12-09T11:00:47.392Z,5.70
2018-12-09T11:01:47.348Z,5.10
2018-12-09T11:02:47.317Z,5.00
2018-12-09T11:03:47.301Z,5.10
2018-12-09T11:04:47.231Z,4.60
2018-12-09T11:05:47.189Z,4.80
2018-12-09T11:06:47.133Z,5.00
2018-12-09T11:07:47.111Z,5.40
2018-12-09T11:08:47.075Z,5.20
2018-12-09T11:09:47.015Z,5.60
2018-12-09T11:10:46.968Z,4.90
2018-12-09T11:11:46.919Z,4.90
2018-12-09T11:12:46.895Z,4.80
2018-12-09T11:13:46.877Z,4.80
2018-12-09T11:14:46.814Z,4.70
2018-12-09T11:15:46.764Z,4.50
2018-12-09T11:16:46.711Z,4.50
2018-12-09T11:17:46.683Z,4.80
2018-12-09T11:18:46.652Z,4.60
2018-12-09T11:19:46.591Z,4.80
2018-12-09T11:20:46.548Z,4.20
2018-12-09T11:21:46.509Z,4.60
2018-12-09T11:22:46.483Z,4.20
2018-12-09T11:23:46.450Z,3.60
2018-12-09T11:24:46.411Z,4.00
2018-12-09T11:25:46.367Z,3.70
2018-12-09T11:26:46.302Z,3.80
2018-12-09T11:27:46.272Z,3.90
2018-12-09T11:28:46.225Z,3.50
2018-12-09T11:29:46.161Z,3.80
2018-12-09T11:30:46.139Z,4.20
2018-12-09T11:31:46.132Z,4.20
2018-12-09T11:32:46.066Z,4.10
2018-12-09T11:33:46.038Z,4.20
2018-12-09T11:34:45.983Z,4.20
2018-12-09T11:35:45.935Z,4.10
2018-12-09T11:36:45.922Z,4.00
2018-12-09T11:37:45.838Z,4.10
2018-12-09T11:38:45.794Z,4.20
2018-12-09T11:39:45.773Z,4.00
2018-12-09T11:40:45.714Z,4.00
2018-12-09T11:41:45.692Z,4.20
2018-12-09T11:42:45.684Z,3.90
2018-12-09T11:43:45.606Z,4.00
2018-12-09T11:44:45.570Z,3.60
2018-12-09T11:45:45.545Z,4.00
2018-12-09T11:46:45.468Z,3.90
2018-12-09T11:47:45.469Z,4.20
2018-12-09T11:48:45.403Z,4.60
2018-12-09T11:49:45.373Z,4.30
2018-12-09T11:50:45.311Z,4.30
2018-12-09T11:51:45.263Z,4.00
2018-12-09T11:52:45.222Z,4.40
2018-12-09T11:53:45.181Z,4.60
2018-12-09T11:54:45.140Z,4.90
2018-12-09T11:55:45.147Z,4.30
2018-12-09T11:56:45.061Z,4.10
2018-12-09T11:57:45.023Z,3.70
2018-12-09T11:58:44.965Z,2.70
2018-12-09T11:59:44.993Z,2.40
2018-12-09T12:00:44.892Z,2.50
2018-12-09T12:01:44.863Z,2.50
2018-12-09T12:02:44.811Z,2.20
2018-12-09T12:03:44.778Z,1.90
2018-12-09T12:04:44.718Z,2.00
2018-12-09T12:05:44.703Z,1.70
2018-12-09T12:06:44.636Z,1.80
2018-12-09T12:07:44.621Z,1.70
2018-12-09T12:08:44.560Z,1.70
2018-12-09T12:09:44.503Z,1.50
2018-12-09T12:10:44.486Z,1.70
2018-12-09T12:11:44.418Z,1.70
2018-12-09T12:12:44.397Z,1.70
2018-12-09T12:13:44.359Z,1.70
2018-12-09T12:14:44.287Z,1.60
2018-12-09T12:15:44.377Z,1.70
2018-12-09T12:16:44.210Z,1.60
2018-12-09T12:17:44.192Z,1.70
2018-12-09T12:18:44.173Z,1.90
2018-12-09T12:19:44.098Z,1.80
2018-12-09T12:20:44.073Z,1.70
2018-12-09T12:21:44.010Z,1.80
2018-12-09T12:22:43.964Z,2.10
2018-12-09T12:23:43.919Z,1.80
2018-12-09T12:24:43.860Z,1.70
2018-12-09T12:25:43.821Z,1.60
2018-12-09T12:26:43.817Z,1.80
2018-12-09T12:27:43.743Z,1.50
2018-12-09T12:28:43.693Z,1.80
2018-12-09T12:29:43.651Z,1.60
2018-12-09T12:30:43.621Z,1.80
2018-12-09T12:31:43.570Z,1.60
2018-12-09T12:32:43.559Z,1.70
2018-12-09T12:33:43.487Z,1.90
2018-12-09T12:34:43.430Z,1.80
2018-12-09T12:35:43.391Z,1.80
2018-12-09T12:36:43.346Z,1.80
2018-12-09T12:37:43.337Z,1.80
2018-12-09T12:38:43.268Z,1.90
2018-12-09T12:39:43.229Z,2.00
2018-12-09T12:40:43.196Z,2.40
2018-12-09T12:41:43.134Z,2.50
2018-12-09T12:42:43.123Z,2.20
2018-12-09T12:43:43.218Z,2.00
2018-12-09T12:44:43.001Z,1.70
2018-12-09T12:45:42.971Z,1.80
2018-12-09T12:46:42.926Z,1.80
2018-12-09T12:47:42.901Z,1.70
2018-12-09T12:48:42.832Z,1.90
2018-12-09T12:49:42.794Z,1.90
2018-12-09T12:50:42.754Z,1.90
2018-12-09T12:51:42.758Z,1.60
2018-12-09T12:52:42.670Z,2.00
2018-12-09T12:53:42.609Z,1.80
2018-12-09T12:54:42.578Z,1.70
2018-12-09T12:55:42.547Z,1.80
2018-12-09T12:56:42.488Z,2.00
2018-12-09T12:57:42.479Z,2.00
2018-12-09T12:58:42.404Z,2.10
2018-12-09T12:59:42.360Z,1.70
2018-12-09T13:00:42.334Z,2.20
2018-12-09T13:01:42.300Z,1.90
2018-12-09T13:02:42.223Z,2.30
2018-12-09T13:03:42.185Z,2.20
2018-12-09T13:04:42.163Z,2.10
2018-12-09T13:05:42.090Z,1.90
2018-12-09T13:06:42.048Z,2.40
2018-12-09T13:07:42.051Z,2.30
2018-12-09T13:08:41.966Z,1.80
2018-12-09T13:09:41.939Z,2.60
2018-12-09T13:10:41.907Z,2.40
2018-12-09T13:11:41.852Z,2.00
2018-12-09T13:12:41.813Z,2.40
2018-12-09T13:13:41.797Z,2.30
2018-12-09T13:14:41.720Z,2.30
2018-12-09T13:15:41.689Z,2.50
2018-12-09T13:16:41.621Z,2.30
2018-12-09T13:17:41.600Z,2.50
2018-12-09T13:18:41.603Z,2.60
2018-12-09T13:19:41.510Z,2.40